Aviation Digital Data Service (ADDS)

Output produced by METARs form (1338 UTC 03 December 2016)
found at http://aviationweather.gov/adds/metars/
 
KLCH 031331Z 09016G23KT 3SM +RA BR BKN007 OVC030 12/11 A2999 RMK AO2 PK WND 08026/1314 P0023 T01170111 $